createdAt,value
2023-04-04T00:00:03.394Z,-4.50
2023-04-04T00:01:05.879Z,-4.47
2023-04-04T00:02:10.624Z,-4.45
2023-04-04T00:03:13.021Z,-4.48
2023-04-04T00:04:18.310Z,-4.48
2023-04-04T00:05:21.563Z,-4.51
2023-04-04T00:06:26.366Z,-4.51
2023-04-04T00:07:28.477Z,-4.54
2023-04-04T00:08:33.175Z,-4.58
2023-04-04T00:09:35.263Z,-4.51
2023-04-04T00:10:40.091Z,-4.55
2023-04-04T00:11:45.386Z,-4.48
2023-04-04T00:12:50.053Z,-4.46
2023-04-04T00:13:52.248Z,-4.48
2023-04-04T00:14:57.706Z,-4.50
2023-04-04T00:15:59.897Z,-4.45
2023-04-04T00:18:37.551Z,-4.40
2023-04-04T00:20:18.118Z,-4.39
2023-04-04T00:21:53.238Z,-4.45
2023-04-04T00:22:55.378Z,-4.48
2023-04-04T00:24:00.182Z,-4.51
2023-04-04T00:25:02.286Z,-4.52
2023-04-04T00:26:06.929Z,-4.56
2023-04-04T00:27:11.654Z,-4.57
2023-04-04T00:28:16.261Z,-4.57
2023-04-04T00:29:18.352Z,-4.56
2023-04-04T00:30:23.125Z,-4.62
2023-04-04T00:31:25.262Z,-4.61
2023-04-04T00:32:30.093Z,-4.62
2023-04-04T00:33:32.388Z,-4.59
2023-04-04T00:34:37.836Z,-4.60
2023-04-04T00:35:40.068Z,-4.56
2023-04-04T00:36:44.725Z,-4.59
2023-04-04T00:37:46.782Z,-4.61
2023-04-04T00:38:51.401Z,-4.62
2023-04-04T00:39:53.475Z,-4.62
2023-04-04T00:40:59.979Z,-4.65
2023-04-04T00:42:02.319Z,-4.61
2023-04-04T00:43:10.212Z,-4.67
2023-04-04T00:44:12.285Z,-4.70
2023-04-04T00:45:16.964Z,-4.69
2023-04-04T00:46:22.237Z,-4.72
2023-04-04T00:47:26.265Z,-4.73
2023-04-04T00:48:31.529Z,-4.80
2023-04-04T00:49:34.709Z,-4.75
2023-04-04T00:50:39.498Z,-4.75
2023-04-04T00:51:41.848Z,-4.74
2023-04-04T00:52:46.516Z,-4.79
2023-04-04T00:53:51.008Z,-4.82
2023-04-04T00:54:56.005Z,-4.84
2023-04-04T00:55:58.177Z,-4.79
2023-04-04T00:57:04.647Z,-4.72
2023-04-04T00:58:10.314Z,-4.67
2023-04-04T00:59:16.292Z,-4.66
2023-04-04T01:00:19.068Z,-4.64
2023-04-04T01:01:25.507Z,-4.66
2023-04-04T01:02:27.634Z,-4.65
2023-04-04T01:03:32.442Z,-4.70
2023-04-04T01:04:35.152Z,-4.75
2023-04-04T01:05:39.846Z,-4.71
2023-04-04T01:06:41.946Z,-4.72
2023-04-04T01:07:47.056Z,-4.65
2023-04-04T01:08:51.372Z,-4.63
2023-04-04T01:09:58.851Z,-4.60
2023-04-04T01:11:01.244Z,-4.55
2023-04-04T01:12:05.904Z,-4.57
2023-04-04T01:13:11.196Z,-4.62
2023-04-04T01:14:15.991Z,-4.60
2023-04-04T01:15:18.039Z,-4.66
2023-04-04T01:16:24.303Z,-4.69
2023-04-04T01:17:27.804Z,-4.65
2023-04-04T01:18:36.652Z,-4.68
2023-04-04T01:19:46.583Z,-4.69
2023-04-04T01:20:57.194Z,-4.69
2023-04-04T01:22:01.380Z,-4.72
2023-04-04T01:23:08.002Z,-4.75
2023-04-04T01:24:13.627Z,-4.72
2023-04-04T01:25:19.182Z,-4.74
2023-04-04T01:26:24.444Z,-4.75
2023-04-04T01:27:29.714Z,-4.79
2023-04-04T01:28:32.179Z,-4.78
2023-04-04T01:29:37.046Z,-4.79
2023-04-04T01:30:40.415Z,-4.86
2023-04-04T01:31:51.295Z,-4.88
2023-04-04T01:32:59.770Z,-4.89
2023-04-04T01:34:13.326Z,-4.91
2023-04-04T01:35:24.204Z,-4.98
2023-04-04T01:36:35.174Z,-4.95
2023-04-04T01:37:44.814Z,-4.85
2023-04-04T01:38:56.978Z,-4.85
2023-04-04T01:40:08.805Z,-4.90
2023-04-04T01:41:15.382Z,-4.90
2023-04-04T01:44:28.211Z,-4.89
2023-04-04T01:45:30.873Z,-4.85
2023-04-04T01:46:36.289Z,-4.88
2023-04-04T01:47:39.386Z,-4.90
2023-04-04T01:48:44.024Z,-4.93
2023-04-04T01:49:46.113Z,-4.95
2023-04-04T01:50:50.879Z,-4.98
2023-04-04T01:51:53.307Z,-4.95
2023-04-04T01:54:50.870Z,-4.95
2023-04-04T01:55:52.875Z,-4.99
2023-04-04T01:56:58.143Z,-5.00
2023-04-04T01:58:00.878Z,-5.02
2023-04-04T01:59:05.548Z,-5.02
2023-04-04T02:00:12.417Z,-5.06
2023-04-04T02:01:17.079Z,-5.05
2023-04-04T02:02:19.180Z,-5.10
2023-04-04T02:03:23.785Z,-5.06
2023-04-04T02:04:26.048Z,-5.10
2023-04-04T02:05:30.767Z,-5.06
2023-04-04T02:06:32.928Z,-5.14
2023-04-04T02:07:37.543Z,-5.05
2023-04-04T02:08:39.658Z,-5.06
2023-04-04T02:09:44.265Z,-5.12
2023-04-04T02:10:48.865Z,-5.14
2023-04-04T02:11:50.984Z,-5.13
2023-04-04T02:12:55.940Z,-5.13
2023-04-04T02:13:58.743Z,-5.12
2023-04-04T02:15:03.331Z,-5.08
2023-04-04T02:16:08.074Z,-5.09
2023-04-04T02:17:12.727Z,-5.08
2023-04-04T02:18:15.983Z,-5.03
2023-04-04T02:19:20.791Z,-5.07
2023-04-04T02:20:22.866Z,-5.09
2023-04-04T02:21:28.305Z,-5.14
2023-04-04T02:22:30.290Z,-5.18
2023-04-04T02:23:34.968Z,-5.18
2023-04-04T02:24:37.078Z,-5.12
2023-04-04T02:25:41.704Z,-5.10
2023-04-04T02:26:43.707Z,-5.11
2023-04-04T02:27:48.272Z,-5.13
2023-04-04T02:28:50.272Z,-5.10
2023-04-04T02:29:55.497Z,-5.08
2023-04-04T02:31:00.757Z,-5.03
2023-04-04T02:32:08.280Z,-5.06
2023-04-04T02:33:10.333Z,-5.05
2023-04-04T02:34:15.140Z,-5.10
2023-04-04T02:35:17.599Z,-5.06
2023-04-04T02:36:22.407Z,-5.00
2023-04-04T02:37:24.480Z,-5.02
2023-04-04T02:38:29.637Z,-5.09
2023-04-04T02:39:31.770Z,-5.13
2023-04-04T02:40:39.809Z,-5.12
2023-04-04T02:41:42.153Z,-5.13
2023-04-04T02:42:47.110Z,-5.23
2023-04-04T02:43:49.159Z,-5.27
2023-04-04T02:44:53.803Z,-5.33
2023-04-04T02:45:56.193Z,-5.36
2023-04-04T02:47:00.849Z,-5.38
2023-04-04T02:48:07.759Z,-5.40
2023-04-04T02:49:12.748Z,-5.40
2023-04-04T02:50:14.742Z,-5.35
2023-04-04T02:51:19.337Z,-5.38
2023-04-04T02:52:21.534Z,-5.40
2023-04-04T02:53:26.230Z,-5.35
2023-04-04T02:54:28.284Z,-5.29
2023-04-04T02:55:33.326Z,-5.27
2023-04-04T02:56:37.333Z,-5.33
2023-04-04T02:57:41.966Z,-5.34
2023-04-04T02:58:44.073Z,-5.39
2023-04-04T02:59:48.750Z,-5.38
2023-04-04T03:00:54.914Z,-5.37
2023-04-04T03:01:59.658Z,-5.40
2023-04-04T03:03:01.825Z,-5.45
2023-04-04T03:04:11.240Z,-5.50
2023-04-04T03:05:13.403Z,-5.55
2023-04-04T03:06:18.657Z,-5.53
2023-04-04T03:07:22.217Z,-5.58
2023-04-04T03:08:28.245Z,-5.56
2023-04-04T03:09:30.321Z,-5.61
2023-04-04T03:10:35.090Z,-5.59
2023-04-04T03:11:37.150Z,-5.58
2023-04-04T03:12:41.807Z,-5.59
2023-04-04T03:13:44.049Z,-5.59
2023-04-04T03:14:48.657Z,-5.59
2023-04-04T03:15:50.760Z,-5.63
2023-04-04T03:16:56.436Z,-5.67
2023-04-04T03:19:35.910Z,-5.72
2023-04-04T03:20:38.165Z,-5.63
2023-04-04T03:21:42.944Z,-5.63
2023-04-04T03:22:45.027Z,-5.60
2023-04-04T03:23:49.652Z,-5.58
2023-04-04T03:24:52.337Z,-5.64
2023-04-04T03:25:57.650Z,-5.58
2023-04-04T03:27:00.516Z,-5.59
2023-04-04T03:28:11.673Z,-5.56
2023-04-04T03:29:16.575Z,-5.56
2023-04-04T03:30:18.744Z,-5.59
2023-04-04T03:31:23.454Z,-5.61
2023-04-04T03:32:25.522Z,-5.63
2023-04-04T03:33:30.180Z,-5.71
2023-04-04T03:34:34.799Z,-5.66
2023-04-04T03:35:41.370Z,-5.63
2023-04-04T03:36:46.860Z,-5.66
2023-04-04T03:37:48.870Z,-5.69
2023-04-04T03:38:53.750Z,-5.70
2023-04-04T03:39:55.818Z,-5.66
2023-04-04T03:41:07.457Z,-5.64
2023-04-04T03:42:09.514Z,-5.64
2023-04-04T03:43:14.159Z,-5.60
2023-04-04T03:44:16.537Z,-5.58
2023-04-04T03:45:22.002Z,-5.62
2023-04-04T03:46:24.668Z,-5.59
2023-04-04T03:47:30.226Z,-5.59
2023-04-04T03:48:32.313Z,-5.51
2023-04-04T03:49:39.728Z,-5.49
2023-04-04T03:50:42.004Z,-5.45
2023-04-04T03:51:46.885Z,-5.43
2023-04-04T03:52:49.007Z,-5.41
2023-04-04T03:53:53.654Z,-5.38
2023-04-04T03:54:55.678Z,-5.39
2023-04-04T03:56:00.819Z,-5.31
2023-04-04T03:57:30.040Z,-5.34
2023-04-04T03:58:32.128Z,-5.31
2023-04-04T03:59:36.726Z,-5.27
2023-04-04T04:00:39.168Z,-5.32
2023-04-04T04:01:44.004Z,-5.34
2023-04-04T04:02:46.196Z,-5.34
2023-04-04T04:03:51.035Z,-5.34
2023-04-04T04:04:55.711Z,-5.32
2023-04-04T04:06:00.366Z,-5.33
2023-04-04T04:07:02.816Z,-5.36
2023-04-04T04:08:08.276Z,-5.37
2023-04-04T04:09:11.335Z,-5.30
2023-04-04T04:12:17.051Z,-5.32
2023-04-04T04:13:19.122Z,-5.32
2023-04-04T04:14:23.784Z,-5.34
2023-04-04T04:15:25.850Z,-5.32
2023-04-04T04:16:30.942Z,-5.25
2023-04-04T04:17:33.068Z,-5.27
2023-04-04T04:18:38.169Z,-5.26
2023-04-04T04:19:40.492Z,-5.28
2023-04-04T04:20:47.735Z,-5.30
2023-04-04T04:21:49.799Z,-5.35
2023-04-04T04:22:54.466Z,-5.33
2023-04-04T04:23:56.514Z,-5.29
2023-04-04T04:25:01.340Z,-5.33
2023-04-04T04:26:03.482Z,-5.36
2023-04-04T04:27:08.152Z,-5.46
2023-04-04T04:28:10.179Z,-5.50
2023-04-04T04:29:14.904Z,-5.43
2023-04-04T04:30:16.955Z,-5.46
2023-04-04T04:31:21.766Z,-5.55
2023-04-04T04:32:23.941Z,-5.56
2023-04-04T04:33:32.370Z,-5.58
2023-04-04T04:34:34.442Z,-5.60
2023-04-04T04:35:40.131Z,-5.58
2023-04-04T04:36:44.900Z,-5.55
2023-04-04T04:37:49.554Z,-5.61
2023-04-04T04:38:51.847Z,-5.56
2023-04-04T04:39:56.526Z,-5.58
2023-04-04T04:40:58.676Z,-5.59
2023-04-04T04:42:03.403Z,-5.57
2023-04-04T04:43:05.731Z,-5.56
2023-04-04T04:44:10.355Z,-5.56
2023-04-04T04:45:12.605Z,-5.58
2023-04-04T04:46:17.858Z,-5.54
2023-04-04T04:47:19.982Z,-5.57
2023-04-04T04:48:24.634Z,-5.54
2023-04-04T04:49:26.785Z,-5.58
2023-04-04T04:50:31.414Z,-5.60
2023-04-04T04:51:33.493Z,-5.63
2023-04-04T04:52:42.250Z,-5.60
2023-04-04T04:53:47.090Z,-5.60
2023-04-04T04:54:50.139Z,-5.64
2023-04-04T04:55:55.035Z,-5.62
2023-04-04T04:56:57.202Z,-5.66
2023-04-04T04:58:01.873Z,-5.64
2023-04-04T04:59:04.262Z,-5.64
2023-04-04T05:00:10.643Z,-5.65
2023-04-04T05:01:12.689Z,-5.59
2023-04-04T05:02:18.359Z,-5.58
2023-04-04T05:03:20.506Z,-5.59
2023-04-04T05:04:25.204Z,-5.62
2023-04-04T05:05:29.872Z,-5.64
2023-04-04T05:06:31.934Z,-5.60
2023-04-04T05:07:36.635Z,-5.60
2023-04-04T05:08:43.940Z,-5.60
2023-04-04T05:09:45.976Z,-5.55
2023-04-04T05:10:50.788Z,-5.56
2023-04-04T05:11:52.859Z,-5.59
2023-04-04T05:12:57.508Z,-5.54
2023-04-04T05:13:59.571Z,-5.58
2023-04-04T05:15:04.184Z,-5.55
2023-04-04T05:16:06.723Z,-5.56
2023-04-04T05:17:11.759Z,-5.59
2023-04-04T05:18:13.849Z,-5.58
2023-04-04T05:19:18.599Z,-5.59
2023-04-04T05:20:20.950Z,-5.57
2023-04-04T05:21:25.799Z,-5.55
2023-04-04T05:22:28.595Z,-5.56
2023-04-04T05:23:33.581Z,-5.55
2023-04-04T05:24:38.211Z,-5.51
2023-04-04T05:25:43.109Z,-5.52
2023-04-04T05:26:45.168Z,-5.41
2023-04-04T05:27:50.390Z,-5.35
2023-04-04T05:28:52.629Z,-5.37
2023-04-04T05:29:57.792Z,-5.33
2023-04-04T05:30:59.926Z,-5.29
2023-04-04T05:32:04.691Z,-5.19
2023-04-04T05:33:06.826Z,-5.19
2023-04-04T05:34:11.497Z,-5.20
2023-04-04T05:35:13.747Z,-5.18
2023-04-04T05:36:18.597Z,-5.11
2023-04-04T05:37:20.732Z,-5.08
2023-04-04T05:38:25.851Z,-5.07
2023-04-04T05:39:27.890Z,-5.04
2023-04-04T05:40:35.124Z,-4.95
2023-04-04T05:41:37.852Z,-4.93
2023-04-04T05:42:42.775Z,-4.90
2023-04-04T05:43:44.987Z,-4.88
2023-04-04T05:44:49.629Z,-4.85
2023-04-04T05:45:51.685Z,-4.83
2023-04-04T05:46:57.079Z,-4.73
2023-04-04T05:47:59.327Z,-4.64
2023-04-04T05:49:04.038Z,-4.60
2023-04-04T05:50:07.553Z,-4.62
2023-04-04T05:51:12.393Z,-4.53
2023-04-04T05:52:14.548Z,-4.51
2023-04-04T05:53:19.907Z,-4.46
2023-04-04T05:54:22.067Z,-4.43
2023-04-04T05:55:26.769Z,-4.40
2023-04-04T05:56:31.439Z,-4.37
2023-04-04T05:57:36.107Z,-4.37
2023-04-04T05:58:38.526Z,-4.36
2023-04-04T05:59:43.217Z,-4.34
2023-04-04T06:00:45.299Z,-4.31
2023-04-04T06:01:49.938Z,-4.30
2023-04-04T06:02:53.691Z,-4.24
2023-04-04T06:04:00.791Z,-4.20
2023-04-04T06:05:02.954Z,-4.16
2023-04-04T06:06:08.388Z,-4.08
2023-04-04T06:07:10.448Z,-4.10
2023-04-04T06:08:15.106Z,-4.02
2023-04-04T06:09:17.224Z,-3.97
2023-04-04T06:10:22.632Z,-3.94
2023-04-04T06:11:24.751Z,-3.95
2023-04-04T06:12:31.981Z,-3.92
2023-04-04T06:13:36.630Z,-3.91
2023-04-04T06:14:38.899Z,-3.87
2023-04-04T06:15:43.675Z,-3.89
2023-04-04T06:16:49.692Z,-3.83
2023-04-04T06:17:54.554Z,-3.74
2023-04-04T06:18:56.627Z,-3.70
2023-04-04T06:20:31.483Z,-3.71
2023-04-04T06:21:36.263Z,-3.60
2023-04-04T06:22:38.431Z,-3.54
2023-04-04T06:23:43.378Z,-3.52
2023-04-04T06:24:48.056Z,-3.52
2023-04-04T06:26:19.698Z,-3.40
2023-04-04T06:27:24.462Z,-3.34
2023-04-04T06:28:29.666Z,-3.27
2023-04-04T06:29:34.373Z,-3.22
2023-04-04T06:30:40.607Z,-3.19
2023-04-04T06:33:03.475Z,-3.16
2023-04-04T06:34:05.553Z,-3.10
2023-04-04T06:35:11.550Z,-3.07
2023-04-04T06:36:13.937Z,-3.06
2023-04-04T06:37:18.702Z,-3.00
2023-04-04T06:38:23.334Z,-2.97
2023-04-04T06:39:25.453Z,-2.95
2023-04-04T06:40:30.126Z,-2.90
2023-04-04T06:41:34.747Z,-2.86
2023-04-04T06:42:39.391Z,-2.81
2023-04-04T06:43:48.777Z,-2.79
2023-04-04T06:44:51.079Z,-2.74
2023-04-04T06:45:56.083Z,-2.67
2023-04-04T06:46:58.352Z,-2.69
2023-04-04T06:48:03.717Z,-2.64
2023-04-04T06:49:06.688Z,-2.53
2023-04-04T06:50:12.891Z,-2.47
2023-04-04T06:51:14.982Z,-2.51
2023-04-04T06:52:19.692Z,-2.41
2023-04-04T06:53:23.911Z,-2.38
2023-04-04T06:54:29.058Z,-2.33
2023-04-04T06:55:31.268Z,-2.31
2023-04-04T06:56:36.189Z,-2.30
2023-04-04T06:57:39.610Z,-2.28
2023-04-04T06:58:47.540Z,-2.21
2023-04-04T06:59:49.961Z,-2.15
2023-04-04T07:00:54.627Z,-2.11
2023-04-04T07:02:00.284Z,-2.08
2023-04-04T07:03:03.029Z,-2.05
2023-04-04T07:04:07.817Z,-2.07
2023-04-04T07:05:10.786Z,-2.00
2023-04-04T07:06:15.435Z,-1.95
2023-04-04T07:07:17.519Z,-1.91
2023-04-04T07:08:22.482Z,-1.85
2023-04-04T07:09:29.123Z,-1.82
2023-04-04T07:10:34.361Z,-1.80
2023-04-04T07:11:39.133Z,-1.74
2023-04-04T07:12:41.422Z,-1.73
2023-04-04T07:13:48.674Z,-1.69
2023-04-04T07:14:50.828Z,-1.64
2023-04-04T07:15:55.573Z,-1.60
2023-04-04T07:18:05.585Z,-1.48
2023-04-04T07:19:10.251Z,-1.44
2023-04-04T07:20:15.321Z,-1.41
2023-04-04T07:21:20.810Z,-1.40
2023-04-04T07:22:22.970Z,-1.35
2023-04-04T07:23:27.723Z,-1.30
2023-04-04T07:24:29.796Z,-1.31
2023-04-04T07:25:34.442Z,-1.30
2023-04-04T07:26:36.615Z,-1.25
2023-04-04T07:27:41.326Z,-1.18
2023-04-04T07:28:48.621Z,-1.20
2023-04-04T07:29:50.745Z,-1.11
2023-04-04T07:30:55.504Z,-1.07
2023-04-04T07:31:57.605Z,-1.02
2023-04-04T07:33:02.909Z,-0.96
2023-04-04T07:34:05.034Z,-0.90
2023-04-04T07:35:10.756Z,-0.87
2023-04-04T07:36:15.682Z,-0.78
2023-04-04T07:37:18.948Z,-0.80
2023-04-04T07:38:23.749Z,-0.75
2023-04-04T07:39:28.461Z,-0.75
2023-04-04T07:42:34.568Z,-0.61
2023-04-04T07:43:39.240Z,-0.53
2023-04-04T07:44:46.612Z,-0.47
2023-04-04T07:45:51.276Z,-0.43
2023-04-04T07:47:06.311Z,-0.37
2023-04-04T07:48:13.757Z,-0.35
2023-04-04T07:49:15.950Z,-0.28
2023-04-04T07:50:21.002Z,-0.25
2023-04-04T07:51:29.514Z,-0.17
2023-04-04T07:54:26.324Z,0.01
2023-04-04T07:55:31.031Z,0.02
2023-04-04T07:56:33.137Z,0.08
2023-04-04T07:57:40.791Z,0.17
2023-04-04T07:58:42.839Z,0.17
2023-04-04T07:59:50.103Z,0.26
2023-04-04T08:00:54.836Z,0.31
2023-04-04T08:01:56.987Z,0.43
2023-04-04T08:03:02.888Z,0.47
2023-04-04T08:04:08.317Z,0.50
2023-04-04T08:05:10.909Z,0.53
2023-04-04T08:06:16.139Z,0.62
2023-04-04T08:07:20.761Z,0.70
2023-04-04T08:08:25.485Z,0.78
2023-04-04T08:14:12.090Z,1.04
2023-04-04T08:15:16.994Z,1.09
2023-04-04T08:16:21.671Z,1.13
2023-04-04T08:17:23.914Z,1.21
2023-04-04T08:18:28.528Z,1.26
2023-04-04T08:19:30.917Z,1.33
2023-04-04T08:20:35.853Z,1.33
2023-04-04T08:21:37.907Z,1.47
2023-04-04T08:22:43.098Z,1.51
2023-04-04T08:23:45.159Z,1.46
2023-04-04T08:24:49.770Z,1.60
2023-04-04T08:25:52.491Z,1.58
2023-04-04T08:27:05.045Z,1.74
2023-04-04T08:28:10.995Z,1.82
2023-04-04T08:29:13.070Z,1.81
2023-04-04T08:30:20.656Z,1.86
2023-04-04T08:31:25.965Z,1.97
2023-04-04T08:32:30.640Z,1.86
2023-04-04T08:33:46.631Z,2.03
2023-04-04T08:34:52.681Z,2.08
2023-04-04T08:35:54.921Z,2.08
2023-04-04T08:37:00.251Z,2.01
2023-04-04T08:38:02.888Z,2.20
2023-04-04T08:39:07.808Z,2.23
2023-04-04T08:40:13.531Z,2.34
2023-04-04T08:41:48.196Z,2.52
2023-04-04T08:42:54.992Z,2.74
2023-04-04T08:44:04.510Z,2.91
2023-04-04T08:45:09.773Z,3.14
2023-04-04T08:46:18.345Z,3.40
2023-04-04T08:47:24.207Z,3.64
2023-04-04T08:48:31.033Z,3.93
2023-04-04T08:49:40.441Z,4.23
2023-04-04T08:50:45.437Z,4.56
2023-04-04T08:51:49.730Z,4.91
2023-04-04T08:52:55.612Z,5.23
2023-04-04T08:54:01.565Z,5.40
2023-04-04T08:55:08.358Z,5.86
2023-04-04T08:56:11.336Z,6.15
2023-04-04T08:57:16.051Z,6.40
2023-04-04T08:58:20.699Z,6.49
2023-04-04T08:59:22.946Z,6.70
2023-04-04T09:00:28.166Z,6.75
2023-04-04T09:01:33.545Z,7.27
2023-04-04T09:02:46.230Z,7.60
2023-04-04T09:03:51.733Z,7.93
2023-04-04T09:05:05.695Z,8.30
2023-04-04T09:06:12.716Z,8.51
2023-04-04T09:07:19.479Z,8.67
2023-04-04T09:08:24.923Z,8.86
2023-04-04T09:09:30.510Z,8.99
2023-04-04T09:10:36.311Z,8.61
2023-04-04T09:11:40.418Z,8.69
2023-04-04T09:12:49.517Z,8.96
2023-04-04T09:13:55.412Z,8.96
2023-04-04T09:14:59.898Z,9.11
2023-04-04T09:16:06.266Z,9.13
2023-04-04T09:17:11.062Z,9.18
2023-04-04T09:18:15.843Z,9.41
2023-04-04T09:19:17.898Z,9.20
2023-04-04T09:20:40.920Z,9.66
2023-04-04T09:21:49.878Z,10.23
2023-04-04T09:22:51.959Z,10.57
2023-04-04T09:24:05.980Z,10.61
2023-04-04T09:25:11.863Z,10.09
2023-04-04T09:26:17.219Z,10.95
2023-04-04T09:27:22.001Z,11.13
2023-04-04T09:28:24.484Z,11.35
2023-04-04T09:29:29.150Z,11.41
2023-04-04T09:30:31.538Z,11.63
2023-04-04T09:31:36.983Z,11.63
2023-04-04T09:32:42.361Z,11.59
2023-04-04T09:33:47.084Z,11.23
2023-04-04T09:34:49.224Z,11.26
2023-04-04T09:35:57.338Z,10.77
2023-04-04T09:37:00.424Z,10.53
2023-04-04T09:38:05.814Z,10.11
2023-04-04T09:39:27.757Z,9.63
2023-04-04T09:40:34.478Z,9.48
2023-04-04T09:42:52.671Z,8.86
2023-04-04T09:44:00.326Z,8.92
2023-04-04T09:45:02.642Z,9.02
2023-04-04T09:46:08.197Z,8.86
2023-04-04T09:47:31.759Z,8.91
2023-04-04T09:48:39.645Z,8.83
2023-04-04T09:49:41.778Z,8.72
2023-04-04T09:50:49.800Z,8.30
2023-04-04T09:51:57.346Z,8.27
2023-04-04T09:53:02.894Z,8.11
2023-04-04T09:54:49.682Z,8.47
2023-04-04T09:55:53.331Z,8.76
2023-04-04T09:56:59.104Z,8.66
2023-04-04T09:58:15.381Z,9.45
2023-04-04T09:59:18.325Z,9.86
2023-04-04T10:00:23.825Z,9.78
2023-04-04T10:01:28.597Z,9.66
2023-04-04T10:02:34.321Z,9.91
2023-04-04T10:03:42.430Z,10.17
2023-04-04T10:04:51.063Z,10.33
2023-04-04T10:06:04.303Z,10.30
2023-04-04T10:07:15.602Z,10.18
2023-04-04T10:08:21.512Z,10.69
2023-04-04T10:09:26.444Z,10.93
2023-04-04T10:10:31.559Z,10.92
2023-04-04T10:11:39.130Z,11.05
2023-04-04T10:12:44.016Z,11.58
2023-04-04T10:13:48.693Z,11.40
2023-04-04T10:14:59.082Z,11.31
2023-04-04T10:16:02.150Z,11.48
2023-04-04T10:17:13.668Z,11.37
2023-04-04T10:18:16.438Z,11.24
2023-04-04T10:19:23.869Z,10.40
2023-04-04T10:20:27.786Z,10.45
2023-04-04T10:21:32.821Z,10.74
2023-04-04T10:22:39.050Z,10.57
2023-04-04T10:23:43.251Z,10.66
2023-04-04T10:24:48.054Z,10.67
2023-04-04T10:25:50.186Z,10.81
2023-04-04T10:26:55.619Z,10.97
2023-04-04T10:27:57.784Z,11.05
2023-04-04T10:29:03.864Z,11.12
2023-04-04T10:30:08.151Z,11.35
2023-04-04T10:31:20.492Z,11.37
2023-04-04T10:32:24.874Z,11.59
2023-04-04T10:33:39.905Z,11.40
2023-04-04T10:34:56.826Z,11.62
2023-04-04T10:36:03.966Z,11.43
2023-04-04T10:37:13.117Z,11.53
2023-04-04T10:38:18.980Z,11.82
2023-04-04T10:39:27.770Z,11.62
2023-04-04T10:40:36.024Z,11.84
2023-04-04T10:41:41.755Z,11.99
2023-04-04T10:42:49.114Z,12.03
2023-04-04T10:43:55.095Z,12.11
2023-04-04T10:45:16.968Z,11.81
2023-04-04T10:46:31.034Z,12.02
2023-04-04T10:47:34.438Z,12.02
2023-04-04T10:48:39.654Z,12.10
2023-04-04T10:49:48.714Z,12.39
2023-04-04T10:50:50.994Z,12.27
2023-04-04T10:51:57.748Z,12.23
2023-04-04T10:53:04.743Z,11.97
2023-04-04T10:54:07.829Z,11.46
2023-04-04T10:55:15.258Z,11.11
2023-04-04T10:56:18.157Z,11.74
2023-04-04T10:57:23.586Z,12.03
2023-04-04T10:58:29.292Z,11.93
2023-04-04T10:59:34.102Z,11.83
2023-04-04T11:00:52.402Z,11.32
2023-04-04T11:02:01.708Z,11.63
2023-04-04T11:03:06.536Z,11.75
2023-04-04T11:04:21.165Z,11.73
2023-04-04T11:07:22.201Z,11.40
2023-04-04T11:08:26.814Z,11.34
2023-04-04T11:09:56.639Z,11.50
2023-04-04T11:11:05.183Z,11.73
2023-04-04T11:12:20.242Z,11.94
2023-04-04T11:13:29.570Z,12.30
2023-04-04T11:14:31.921Z,11.97
2023-04-04T11:15:48.855Z,11.73
2023-04-04T11:16:52.973Z,11.85
2023-04-04T11:18:00.705Z,11.78
2023-04-04T11:19:02.798Z,11.64
2023-04-04T11:20:10.709Z,11.81
2023-04-04T11:21:18.555Z,11.94
2023-04-04T11:22:26.147Z,11.95
2023-04-04T11:23:40.030Z,11.73
2023-04-04T11:24:44.776Z,11.79
2023-04-04T11:25:56.555Z,11.41
2023-04-04T11:27:00.254Z,11.58
2023-04-04T11:28:15.223Z,11.71
2023-04-04T11:29:55.461Z,12.02
2023-04-04T11:31:27.946Z,12.36
2023-04-04T11:32:34.860Z,12.45
2023-04-04T11:33:57.961Z,12.85
2023-04-04T11:35:00.043Z,13.00
2023-04-04T11:36:08.967Z,12.95
2023-04-04T11:37:17.999Z,12.76
2023-04-04T11:38:25.339Z,12.43
2023-04-04T11:39:29.362Z,12.14
2023-04-04T11:40:39.345Z,12.21
2023-04-04T11:41:48.366Z,12.49
2023-04-04T11:42:56.313Z,12.55
2023-04-04T11:44:05.962Z,12.73
2023-04-04T11:45:11.584Z,12.91
2023-04-04T11:46:20.453Z,13.08
2023-04-04T11:47:28.062Z,12.94
2023-04-04T11:48:36.280Z,12.94
2023-04-04T11:49:39.809Z,13.43
2023-04-04T11:50:44.840Z,13.43
2023-04-04T11:51:50.400Z,13.50
2023-04-04T11:52:56.992Z,13.24
2023-04-04T11:54:04.732Z,12.71
2023-04-04T11:55:16.230Z,12.21
2023-04-04T11:56:22.637Z,12.19
2023-04-04T11:57:24.687Z,11.93
2023-04-04T11:58:29.683Z,11.70
2023-04-04T11:59:34.975Z,11.56
2023-04-04T12:00:39.437Z,11.57
2023-04-04T12:01:45.016Z,11.64
2023-04-04T12:02:47.552Z,11.79
2023-04-04T12:03:52.295Z,11.98
2023-04-04T12:04:54.484Z,12.50
2023-04-04T12:06:00.365Z,12.66
2023-04-04T12:07:03.720Z,12.59
2023-04-04T12:08:10.868Z,11.78
2023-04-04T12:09:17.722Z,12.30
2023-04-04T12:10:22.483Z,12.73
2023-04-04T12:11:29.555Z,13.12
2023-04-04T12:12:34.277Z,13.64
2023-04-04T12:13:45.746Z,13.62
2023-04-04T12:14:48.033Z,13.97
2023-04-04T12:15:52.809Z,13.71
2023-04-04T12:16:56.904Z,14.21
2023-04-04T12:18:01.686Z,14.80
2023-04-04T12:19:06.372Z,14.92
2023-04-04T12:20:11.508Z,15.07
2023-04-04T12:21:16.128Z,14.97
2023-04-04T12:22:21.303Z,15.19
2023-04-04T12:23:23.661Z,14.75
2023-04-04T12:24:31.388Z,15.38
2023-04-04T12:25:34.367Z,15.67
2023-04-04T12:26:41.119Z,15.91
2023-04-04T12:27:45.976Z,15.87
2023-04-04T12:28:52.987Z,16.00
2023-04-04T12:29:58.249Z,16.49
2023-04-04T12:31:05.857Z,15.95
2023-04-04T12:32:12.581Z,15.39
2023-04-04T12:33:14.679Z,15.64
2023-04-04T12:34:20.711Z,16.17
2023-04-04T12:35:22.876Z,16.41
2023-04-04T12:36:28.837Z,16.68
2023-04-04T12:37:34.482Z,16.71
2023-04-04T12:38:58.247Z,15.95
2023-04-04T12:40:03.247Z,16.22
2023-04-04T12:41:19.794Z,16.03
2023-04-04T12:42:23.065Z,16.82
2023-04-04T12:43:31.605Z,17.35
2023-04-04T12:44:38.075Z,17.64
2023-04-04T12:45:43.340Z,17.70
2023-04-04T12:46:47.732Z,17.35
2023-04-04T12:47:55.858Z,17.13
2023-04-04T12:49:30.882Z,17.92
2023-04-04T12:50:36.181Z,17.84
2023-04-04T12:51:41.631Z,17.97
2023-04-04T12:52:44.653Z,18.56
2023-04-04T12:53:57.081Z,18.93
2023-04-04T12:55:07.988Z,19.10
2023-04-04T12:56:13.316Z,18.74
2023-04-04T12:57:21.449Z,18.65
2023-04-04T12:58:28.388Z,19.33
2023-04-04T12:59:32.008Z,19.55
2023-04-04T13:00:37.018Z,19.65
2023-04-04T13:01:41.738Z,19.36
2023-04-04T13:02:46.171Z,19.48
2023-04-04T13:03:51.304Z,19.77
2023-04-04T13:04:55.763Z,19.89
2023-04-04T13:06:02.695Z,19.61
2023-04-04T13:07:07.429Z,19.51
2023-04-04T13:08:10.637Z,19.70
2023-04-04T13:09:20.476Z,20.09
2023-04-04T13:10:25.117Z,20.46
2023-04-04T13:11:59.195Z,19.59
2023-04-04T13:13:05.528Z,20.30
2023-04-04T13:14:13.091Z,20.81
2023-04-04T13:15:19.409Z,20.49
2023-04-04T13:16:34.617Z,21.10
2023-04-04T13:17:46.845Z,21.54
2023-04-04T13:18:48.930Z,21.14
2023-04-04T13:19:54.402Z,21.73
2023-04-04T13:20:56.728Z,21.44
2023-04-04T13:22:03.127Z,22.54
2023-04-04T13:23:05.180Z,22.94
2023-04-04T13:24:10.210Z,21.75
2023-04-04T13:25:12.699Z,22.00
2023-04-04T13:26:17.453Z,22.02
2023-04-04T13:27:22.076Z,22.28
2023-04-04T13:28:26.839Z,22.61
2023-04-04T13:29:31.765Z,23.23
2023-04-04T13:30:33.988Z,23.70
2023-04-04T13:31:38.627Z,23.98
2023-04-04T13:32:40.699Z,23.54
2023-04-04T13:33:45.348Z,22.86
2023-04-04T13:34:50.343Z,23.05
2023-04-04T13:35:55.226Z,22.84
2023-04-04T13:36:58.053Z,23.24
2023-04-04T13:38:02.714Z,22.08
2023-04-04T13:39:07.782Z,21.77
2023-04-04T13:40:13.702Z,22.26
2023-04-04T13:41:18.360Z,22.95
2023-04-04T13:42:30.354Z,23.39
2023-04-04T13:43:35.044Z,23.32
2023-04-04T13:44:37.225Z,23.68
2023-04-04T13:45:42.832Z,23.33
2023-04-04T13:46:47.462Z,23.48
2023-04-04T13:47:49.607Z,24.51
2023-04-04T13:48:54.280Z,24.98
2023-04-04T13:49:56.398Z,24.57
2023-04-04T13:51:01.060Z,24.99
2023-04-04T13:52:06.158Z,23.81
2023-04-04T13:53:08.867Z,23.65
2023-04-04T13:54:14.126Z,23.58
2023-04-04T13:55:18.994Z,24.00
2023-04-04T13:57:04.845Z,23.37
2023-04-04T14:05:35.901Z,25.36
2023-04-04T14:06:42.100Z,26.02
2023-04-04T14:07:51.380Z,26.48
2023-04-04T14:08:57.870Z,26.12
2023-04-04T14:10:02.800Z,26.05
2023-04-04T14:11:07.750Z,25.58
2023-04-04T14:12:09.859Z,26.20
2023-04-04T14:13:14.539Z,25.38
2023-04-04T14:14:17.141Z,25.57
2023-04-04T14:15:24.551Z,25.71
2023-04-04T14:16:29.339Z,25.72
2023-04-04T14:17:31.674Z,25.37
2023-04-04T14:18:37.233Z,24.27
2023-04-04T14:19:39.890Z,24.63
2023-04-04T14:20:56.277Z,23.82
2023-04-04T14:21:58.292Z,23.57
2023-04-04T14:23:02.981Z,22.89
2023-04-04T14:24:08.175Z,23.14
2023-04-04T14:25:13.148Z,23.48
2023-04-04T14:26:15.208Z,22.61
2023-04-04T14:27:19.916Z,23.79
2023-04-04T14:28:22.004Z,24.04
2023-04-04T14:29:26.727Z,23.62
2023-04-04T14:30:33.969Z,23.33
2023-04-04T14:31:36.277Z,23.84
2023-04-04T14:32:40.959Z,24.29
2023-04-04T14:33:43.060Z,24.19
2023-04-04T14:34:47.850Z,24.62
2023-04-04T14:35:52.653Z,24.17
2023-04-04T14:36:54.824Z,24.41
2023-04-04T14:37:59.452Z,23.52
2023-04-04T14:39:01.643Z,25.01